sensor_id;sensor_type;location;lat;lon;timestamp;pressure;altitude;pressure_sealevel;temperature;humidity
63552;BME280;49698;48.072;7.800;2023-02-04T00:00:27;101018.41;;;5.67;95.47
63552;BME280;49698;48.072;7.800;2023-02-04T00:02:56;101018.41;;;5.67;95.27
63552;BME280;49698;48.072;7.800;2023-02-04T00:05:25;101019.22;;;5.67;95.42
63552;BME280;49698;48.072;7.800;2023-02-04T00:07:53;101023.72;;;5.67;95.57
63552;BME280;49698;48.072;7.800;2023-02-04T00:10:21;101023.91;;;5.65;96.13
63552;BME280;49698;48.072;7.800;2023-02-04T00:12:49;101024.16;;;5.63;96.40
63552;BME280;49698;48.072;7.800;2023-02-04T00:15:17;101026.81;;;5.63;96.40
63552;BME280;49698;48.072;7.800;2023-02-04T00:17:45;101021.69;;;5.62;96.38
63552;BME280;49698;48.072;7.800;2023-02-04T00:20:13;101024.38;;;5.62;96.69
63552;BME280;49698;48.072;7.800;2023-02-04T00:22:42;101027.84;;;5.62;96.65
63552;BME280;49698;48.072;7.800;2023-02-04T00:25:10;101026.22;;;5.61;96.71
63552;BME280;49698;48.072;7.800;2023-02-04T00:27:38;101026.22;;;5.61;97.05
63552;BME280;49698;48.072;7.800;2023-02-04T00:30:07;101022.94;;;5.59;97.51
63552;BME280;49698;48.072;7.800;2023-02-04T00:32:35;101017.59;;;5.59;97.31
63552;BME280;49698;48.072;7.800;2023-02-04T00:35:04;101017.59;;;5.59;97.34
63552;BME280;49698;48.072;7.800;2023-02-04T00:37:32;101007.72;;;5.60;97.65
63552;BME280;49698;48.072;7.800;2023-02-04T00:40:01;101006.91;;;5.59;97.92
63552;BME280;49698;48.072;7.800;2023-02-04T00:42:29;101010.63;;;5.58;97.70
63552;BME280;49698;48.072;7.800;2023-02-04T00:44:57;100997.28;;;5.58;97.74
63552;BME280;49698;48.072;7.800;2023-02-04T00:47:25;101004.25;;;5.59;98.02
63552;BME280;49698;48.072;7.800;2023-02-04T00:49:55;101001.59;;;5.59;98.28
63552;BME280;49698;48.072;7.800;2023-02-04T00:52:23;100994.63;;;5.58;98.25
63552;BME280;49698;48.072;7.800;2023-02-04T00:54:51;100996.47;;;5.58;98.37
63552;BME280;49698;48.072;7.800;2023-02-04T00:57:20;100992.78;;;5.59;98.36
63552;BME280;49698;48.072;7.800;2023-02-04T00:59:48;100989.28;;;5.58;98.36
63552;BME280;49698;48.072;7.800;2023-02-04T01:02:16;100988.03;;;5.61;98.72
63552;BME280;49698;48.072;7.800;2023-02-04T01:04:44;100997.88;;;5.60;98.70
63552;BME280;49698;48.072;7.800;2023-02-04T01:07:12;100995.44;;;5.59;98.38
63552;BME280;49698;48.072;7.800;2023-02-04T01:09:40;101004.25;;;5.59;98.71
63552;BME280;49698;48.072;7.800;2023-02-04T01:12:08;101003.22;;;5.60;98.95
63552;BME280;49698;48.072;7.800;2023-02-04T01:14:38;100993.38;;;5.61;98.92
63552;BME280;49698;48.072;7.800;2023-02-04T01:17:05;101004.03;;;5.61;98.97
63552;BME280;49698;48.072;7.800;2023-02-04T01:19:33;101000.56;;;5.60;99.10
63552;BME280;49698;48.072;7.800;2023-02-04T01:22:01;100990.91;;;5.59;99.27
63552;BME280;49698;48.072;7.800;2023-02-04T01:24:29;100998.50;;;5.62;98.91
63552;BME280;49698;48.072;7.800;2023-02-04T01:27:15;100996.88;;;5.61;99.16
63552;BME280;49698;48.072;7.800;2023-02-04T01:29:45;100997.88;;;5.60;98.83
63552;BME280;49698;48.072;7.800;2023-02-04T01:32:13;100995.84;;;5.62;98.89
63552;BME280;49698;48.072;7.800;2023-02-04T01:34:41;100995.03;;;5.62;98.90
63552;BME280;49698;48.072;7.800;2023-02-04T01:37:09;100994.22;;;5.61;99.12
63552;BME280;49698;48.072;7.800;2023-02-04T01:39:37;100994.41;;;5.60;99.21
63552;BME280;49698;48.072;7.800;2023-02-04T01:42:06;100992.53;;;5.60;99.42
63552;BME280;49698;48.072;7.800;2023-02-04T01:44:35;100997.28;;;5.58;99.54
63552;BME280;49698;48.072;7.800;2023-02-04T01:47:04;100997.88;;;5.60;99.49
63552;BME280;49698;48.072;7.800;2023-02-04T01:49:32;100999.97;;;5.58;99.24
63552;BME280;49698;48.072;7.800;2023-02-04T01:52:01;101011.44;;;5.59;99.52
63552;BME280;49698;48.072;7.800;2023-02-04T01:54:29;101007.72;;;5.60;99.38
63552;BME280;49698;48.072;7.800;2023-02-04T01:56:58;101005.69;;;5.62;99.59
63552;BME280;49698;48.072;7.800;2023-02-04T01:59:26;101005.69;;;5.62;99.55
63552;BME280;49698;48.072;7.800;2023-02-04T02:01:54;101006.50;;;5.62;99.23
63552;BME280;49698;48.072;7.800;2023-02-04T02:04:28;100995.84;;;5.62;99.68
63552;BME280;49698;48.072;7.800;2023-02-04T02:07:03;101002.81;;;5.63;99.49
63552;BME280;49698;48.072;7.800;2023-02-04T02:09:32;100993.75;;;5.64;99.31
63552;BME280;49698;48.072;7.800;2023-02-04T02:12:01;100989.47;;;5.63;99.39
63552;BME280;49698;48.072;7.800;2023-02-04T02:14:30;100986.78;;;5.63;99.13
63552;BME280;49698;48.072;7.800;2023-02-04T02:16:58;100989.47;;;5.63;99.35
63552;BME280;49698;48.072;7.800;2023-02-04T02:19:32;100986.78;;;5.63;99.25
63552;BME280;49698;48.072;7.800;2023-02-04T02:22:04;100988.44;;;5.64;99.05
63552;BME280;49698;48.072;7.800;2023-02-04T02:24:35;100986.38;;;5.67;99.28
63552;BME280;49698;48.072;7.800;2023-02-04T02:27:05;100979.41;;;5.66;99.03
63552;BME280;49698;48.072;7.800;2023-02-04T02:29:35;100980.22;;;5.66;99.26
63552;BME280;49698;48.072;7.800;2023-02-04T02:32:04;100979.41;;;5.66;99.40
63552;BME280;49698;48.072;7.800;2023-02-04T02:34:33;100985.56;;;5.66;99.40
63552;BME280;49698;48.072;7.800;2023-02-04T02:37:01;100978.38;;;5.67;99.04
63552;BME280;49698;48.072;7.800;2023-02-04T02:39:30;100972.00;;;5.68;98.98
63552;BME280;49698;48.072;7.800;2023-02-04T02:42:00;100976.53;;;5.67;98.86
63552;BME280;49698;48.072;7.800;2023-02-04T02:44:29;100981.03;;;5.67;99.14
63552;BME280;49698;48.072;7.800;2023-02-04T02:46:58;100971.41;;;5.66;99.48
63552;BME280;49698;48.072;7.800;2023-02-04T02:49:27;100966.06;;;5.66;99.47
63552;BME280;49698;48.072;7.800;2023-02-04T02:51:57;100972.41;;;5.64;99.25
63552;BME280;49698;48.072;7.800;2023-02-04T02:54:28;100971.59;;;5.64;99.53
63552;BME280;49698;48.072;7.800;2023-02-04T02:57:02;100971.59;;;5.64;99.29
63552;BME280;49698;48.072;7.800;2023-02-04T02:59:30;100979.41;;;5.66;99.21
63552;BME280;49698;48.072;7.800;2023-02-04T03:02:01;100971.19;;;5.67;99.45
63552;BME280;49698;48.072;7.800;2023-02-04T03:04:34;100980.00;;;5.68;99.05
63552;BME280;49698;48.072;7.800;2023-02-04T03:07:05;100983.50;;;5.68;99.09
63552;BME280;49698;48.072;7.800;2023-02-04T03:09:34;100979.78;;;5.69;99.10
63552;BME280;49698;48.072;7.800;2023-02-04T03:12:05;100980.41;;;5.71;98.92
63552;BME280;49698;48.072;7.800;2023-02-04T03:14:34;100977.72;;;5.71;99.06
63552;BME280;49698;48.072;7.800;2023-02-04T03:17:05;100976.09;;;5.70;98.79
63552;BME280;49698;48.072;7.800;2023-02-04T03:19:35;100986.56;;;5.72;99.20
63552;BME280;49698;48.072;7.800;2023-02-04T03:22:04;100981.44;;;5.70;99.16
63552;BME280;49698;48.072;7.800;2023-02-04T03:24:34;100976.91;;;5.71;99.23
63552;BME280;49698;48.072;7.800;2023-02-04T03:27:04;100980.63;;;5.70;99.05
63552;BME280;49698;48.072;7.800;2023-02-04T03:29:33;100973.63;;;5.69;99.03
63552;BME280;49698;48.072;7.800;2023-02-04T03:32:01;100986.97;;;5.69;99.33
63552;BME280;49698;48.072;7.800;2023-02-04T03:34:32;100987.59;;;5.71;99.06
63552;BME280;49698;48.072;7.800;2023-02-04T03:36:59;100987.59;;;5.71;99.08
63552;BME280;49698;48.072;7.800;2023-02-04T03:39:27;100992.50;;;5.74;98.91
63552;BME280;49698;48.072;7.800;2023-02-04T03:41:55;100992.50;;;5.74;98.88
63552;BME280;49698;48.072;7.800;2023-02-04T03:44:24;100988.19;;;5.73;98.84
63552;BME280;49698;48.072;7.800;2023-02-04T03:46:52;100983.69;;;5.73;98.90
63552;BME280;49698;48.072;7.800;2023-02-04T03:49:21;100981.84;;;5.74;99.25
63552;BME280;49698;48.072;7.800;2023-02-04T03:51:49;100976.50;;;5.74;99.08
63552;BME280;49698;48.072;7.800;2023-02-04T03:54:17;100973.84;;;5.74;99.17
63552;BME280;49698;48.072;7.800;2023-02-04T03:56:45;100977.50;;;5.73;98.96
63552;BME280;49698;48.072;7.800;2023-02-04T03:59:13;100971.16;;;5.74;98.95
63552;BME280;49698;48.072;7.800;2023-02-04T04:01:42;100981.84;;;5.74;98.97
63552;BME280;49698;48.072;7.800;2023-02-04T04:04:10;100981.84;;;5.74;99.25
63552;BME280;49698;48.072;7.800;2023-02-04T04:06:38;100985.50;;;5.73;98.98
63552;BME280;49698;48.072;7.800;2023-02-04T04:09:06;100982.84;;;5.73;99.15
63552;BME280;49698;48.072;7.800;2023-02-04T04:11:34;100986.38;;;5.73;99.07
63552;BME280;49698;48.072;7.800;2023-02-04T04:14:02;100985.50;;;5.73;99.29
63552;BME280;49698;48.072;7.800;2023-02-04T04:16:30;100986.56;;;5.72;99.24
63552;BME280;49698;48.072;7.800;2023-02-04T04:18:59;100979.59;;;5.71;99.39
63552;BME280;49698;48.072;7.800;2023-02-04T04:21:27;100977.72;;;5.71;99.57
63552;BME280;49698;48.072;7.800;2023-02-04T04:23:55;100976.91;;;5.71;99.72
63552;BME280;49698;48.072;7.800;2023-02-04T04:26:23;100978.56;;;5.72;99.76
63552;BME280;49698;48.072;7.800;2023-02-04T04:28:51;100981.22;;;5.72;99.58
63552;BME280;49698;48.072;7.800;2023-02-04T04:31:19;100983.88;;;5.72;99.58
63552;BME280;49698;48.072;7.800;2023-02-04T04:33:47;100976.91;;;5.71;100.00
63552;BME280;49698;48.072;7.800;2023-02-04T04:36:17;100975.28;;;5.70;99.75
63552;BME280;49698;48.072;7.800;2023-02-04T04:38:45;100974.66;;;5.68;100.00
63552;BME280;49698;48.072;7.800;2023-02-04T04:41:13;100979.78;;;5.69;100.00
63552;BME280;49698;48.072;7.800;2023-02-04T04:43:41;100975.28;;;5.70;100.00
63552;BME280;49698;48.072;7.800;2023-02-04T04:46:09;100978.56;;;5.72;100.00
63552;BME280;49698;48.072;7.800;2023-02-04T04:48:37;100974.84;;;5.73;99.90
63552;BME280;49698;48.072;7.800;2023-02-04T04:51:05;100974.84;;;5.73;99.73
63552;BME280;49698;48.072;7.800;2023-02-04T04:53:34;100976.50;;;5.74;100.00
63552;BME280;49698;48.072;7.800;2023-02-04T04:56:02;100976.50;;;5.74;100.00
63552;BME280;49698;48.072;7.800;2023-02-04T04:58:30;100984.28;;;5.75;100.00
63552;BME280;49698;48.072;7.800;2023-02-04T05:00:58;100982.44;;;5.76;100.00
63552;BME280;49698;48.072;7.800;2023-02-04T05:03:26;100978.53;;;5.78;100.00
63552;BME280;49698;48.072;7.800;2023-02-04T05:05:54;100969.50;;;5.79;99.83
63552;BME280;49698;48.072;7.800;2023-02-04T05:08:22;100977.28;;;5.81;99.80
63552;BME280;49698;48.072;7.800;2023-02-04T05:10:51;100973.59;;;5.82;99.98
63552;BME280;49698;48.072;7.800;2023-02-04T05:13:19;100972.56;;;5.83;99.76
63552;BME280;49698;48.072;7.800;2023-02-04T05:15:49;100976.84;;;5.84;100.00
63552;BME280;49698;48.072;7.800;2023-02-04T05:18:17;100977.66;;;5.84;99.73
63552;BME280;49698;48.072;7.800;2023-02-04T05:20:45;100984.66;;;5.85;100.00
63552;BME280;49698;48.072;7.800;2023-02-04T05:23:13;100990.81;;;5.86;99.74
63552;BME280;49698;48.072;7.800;2023-02-04T05:25:42;100987.09;;;5.87;100.00
63552;BME280;49698;48.072;7.800;2023-02-04T05:28:11;100993.25;;;5.87;99.88
63552;BME280;49698;48.072;7.800;2023-02-04T05:30:39;100985.06;;;5.89;100.00
63552;BME280;49698;48.072;7.800;2023-02-04T05:33:07;100990.16;;;5.91;99.98
63552;BME280;49698;48.072;7.800;2023-02-04T05:35:35;100989.97;;;5.92;100.00
63552;BME280;49698;48.072;7.800;2023-02-04T05:38:03;100987.50;;;5.91;99.83
63552;BME280;49698;48.072;7.800;2023-02-04T05:40:31;100985.06;;;5.89;99.67
63552;BME280;49698;48.072;7.800;2023-02-04T05:42:59;100988.72;;;5.88;100.00
63552;BME280;49698;48.072;7.800;2023-02-04T05:45:28;100988.72;;;5.88;100.00
63552;BME280;49698;48.072;7.800;2023-02-04T05:47:56;100995.09;;;5.87;100.00
63552;BME280;49698;48.072;7.800;2023-02-04T05:50:24;101003.13;;;5.87;99.86
63552;BME280;49698;48.072;7.800;2023-02-04T05:53:06;100992.03;;;5.83;100.00
63552;BME280;49698;48.072;7.800;2023-02-04T05:55:34;100993.91;;;5.83;100.00
63552;BME280;49698;48.072;7.800;2023-02-04T05:58:02;101000.28;;;5.82;100.00
63552;BME280;49698;48.072;7.800;2023-02-04T06:00:32;100993.31;;;5.81;100.00
63552;BME280;49698;48.072;7.800;2023-02-04T06:03:00;100998.03;;;5.79;100.00
63552;BME280;49698;48.072;7.800;2023-02-04T06:05:28;100997.78;;;5.80;100.00
63552;BME280;49698;48.072;7.800;2023-02-04T06:07:56;100996.97;;;5.80;100.00
63552;BME280;49698;48.072;7.800;2023-02-04T06:10:24;101005.81;;;5.80;100.00
63552;BME280;49698;48.072;7.800;2023-02-04T06:12:52;101005.00;;;5.80;100.00
63552;BME280;49698;48.072;7.800;2023-02-04T06:15:20;101009.31;;;5.81;100.00
63552;BME280;49698;48.072;7.800;2023-02-04T06:17:49;101006.44;;;5.82;100.00
63552;BME280;49698;48.072;7.800;2023-02-04T06:20:19;101014.44;;;5.82;100.00
63552;BME280;49698;48.072;7.800;2023-02-04T06:22:46;101017.91;;;5.83;100.00
63552;BME280;49698;48.072;7.800;2023-02-04T06:25:17;101018.94;;;5.82;100.00
63552;BME280;49698;48.072;7.800;2023-02-04T06:27:45;101018.72;;;5.83;100.00
63552;BME280;49698;48.072;7.800;2023-02-04T06:30:14;101025.91;;;5.83;100.00
63552;BME280;49698;48.072;7.800;2023-02-04T06:32:42;101020.59;;;5.83;100.00
63552;BME280;49698;48.072;7.800;2023-02-04T06:35:12;101027.78;;;5.82;100.00
63552;BME280;49698;48.072;7.800;2023-02-04T06:37:41;101028.59;;;5.83;100.00
63552;BME280;49698;48.072;7.800;2023-02-04T06:40:10;101026.72;;;5.83;100.00
63552;BME280;49698;48.072;7.800;2023-02-04T06:42:38;101023.25;;;5.83;100.00
63552;BME280;49698;48.072;7.800;2023-02-04T06:45:06;101021.63;;;5.82;100.00
63552;BME280;49698;48.072;7.800;2023-02-04T06:47:34;101024.47;;;5.80;100.00
63552;BME280;49698;48.072;7.800;2023-02-04T06:50:02;101027.16;;;5.80;100.00
63552;BME280;49698;48.072;7.800;2023-02-04T06:52:31;101036.00;;;5.81;100.00
63552;BME280;49698;48.072;7.800;2023-02-04T06:54:59;101042.97;;;5.82;100.00
63552;BME280;49698;48.072;7.800;2023-02-04T06:57:27;101041.13;;;5.82;100.00
63552;BME280;49698;48.072;7.800;2023-02-04T06:59:55;101055.28;;;5.83;100.00
63552;BME280;49698;48.072;7.800;2023-02-04T07:02:23;101046.22;;;5.84;100.00
63552;BME280;49698;48.072;7.800;2023-02-04T07:04:51;101043.78;;;5.82;100.00
63552;BME280;49698;48.072;7.800;2023-02-04T07:07:19;101043.78;;;5.82;100.00
63552;BME280;49698;48.072;7.800;2023-02-04T07:09:48;101053.41;;;5.83;100.00
63552;BME280;49698;48.072;7.800;2023-02-04T07:12:16;101056.91;;;5.84;100.00
63552;BME280;49698;48.072;7.800;2023-02-04T07:14:44;101062.25;;;5.84;100.00
63552;BME280;49698;48.072;7.800;2023-02-04T07:17:12;101063.91;;;5.85;100.00
63552;BME280;49698;48.072;7.800;2023-02-04T07:19:40;101062.88;;;5.86;100.00
63552;BME280;49698;48.072;7.800;2023-02-04T07:22:09;101064.72;;;5.85;100.00
63552;BME280;49698;48.072;7.800;2023-02-04T07:24:37;101067.16;;;5.87;100.00
63552;BME280;49698;48.072;7.800;2023-02-04T07:27:06;101074.97;;;5.88;100.00
63552;BME280;49698;48.072;7.800;2023-02-04T07:29:35;101072.09;;;5.90;100.00
63552;BME280;49698;48.072;7.800;2023-02-04T07:32:03;101077.41;;;5.90;100.00
63552;BME280;49698;48.072;7.800;2023-02-04T07:34:31;101075.38;;;5.92;100.00
63552;BME280;49698;48.072;7.800;2023-02-04T07:36:59;101078.66;;;5.94;100.00
63552;BME280;49698;48.072;7.800;2023-02-04T07:39:27;101077.63;;;5.95;100.00
63552;BME280;49698;48.072;7.800;2023-02-04T07:41:55;101079.25;;;5.96;100.00
63552;BME280;49698;48.072;7.800;2023-02-04T07:44:32;101077.22;;;5.98;100.00
63552;BME280;49698;48.072;7.800;2023-02-04T07:47:00;101072.50;;;6.00;100.00
63552;BME280;49698;48.072;7.800;2023-02-04T07:49:28;101085.41;;;6.03;100.00
63552;BME280;49698;48.072;7.800;2023-02-04T07:51:56;101076.38;;;6.04;100.00
63552;BME280;49698;48.072;7.800;2023-02-04T07:54:24;101083.13;;;6.07;100.00
63552;BME280;49698;48.072;7.800;2023-02-04T07:56:52;101087.00;;;6.11;100.00
63552;BME280;49698;48.072;7.800;2023-02-04T07:59:20;101086.81;;;6.12;100.00
63552;BME280;49698;48.072;7.800;2023-02-04T08:01:49;101095.41;;;6.15;100.00
63552;BME280;49698;48.072;7.800;2023-02-04T08:04:17;101087.22;;;6.16;100.00
63552;BME280;49698;48.072;7.800;2023-02-04T08:06:45;101092.97;;;6.20;100.00
63552;BME280;49698;48.072;7.800;2023-02-04T08:09:13;101097.84;;;6.23;100.00
63552;BME280;49698;48.072;7.800;2023-02-04T08:11:40;101094.16;;;6.24;100.00
63552;BME280;49698;48.072;7.800;2023-02-04T08:14:08;101093.72;;;6.27;100.00
63552;BME280;49698;48.072;7.800;2023-02-04T08:16:36;101097.00;;;6.29;100.00
63552;BME280;49698;48.072;7.800;2023-02-04T08:19:05;101100.28;;;6.31;100.00
63552;BME280;49698;48.072;7.800;2023-02-04T08:21:33;101098.84;;;6.35;100.00
63552;BME280;49698;48.072;7.800;2023-02-04T08:24:02;101103.53;;;6.40;100.00
63552;BME280;49698;48.072;7.800;2023-02-04T08:26:30;101101.25;;;6.43;100.00
63552;BME280;49698;48.072;7.800;2023-02-04T08:28:57;101104.31;;;6.47;100.00
63552;BME280;49698;48.072;7.800;2023-02-04T08:31:25;101108.41;;;6.49;99.63
63552;BME280;49698;48.072;7.800;2023-02-04T08:33:53;101114.97;;;6.53;99.64
63552;BME280;49698;48.072;7.800;2023-02-04T08:36:23;101121.97;;;6.54;99.86
63552;BME280;49698;48.072;7.800;2023-02-04T08:38:51;101115.56;;;6.55;99.69
63552;BME280;49698;48.072;7.800;2023-02-04T08:41:18;101122.53;;;6.56;99.62
63552;BME280;49698;48.072;7.800;2023-02-04T08:43:46;101130.56;;;6.56;99.68
63552;BME280;49698;48.072;7.800;2023-02-04T08:46:14;101132.41;;;6.56;100.00
63552;BME280;49698;48.072;7.800;2023-02-04T08:48:42;101126.84;;;6.57;100.00
63552;BME280;49698;48.072;7.800;2023-02-04T08:51:10;101131.19;;;6.58;99.76
63552;BME280;49698;48.072;7.800;2023-02-04T08:53:40;101125.63;;;6.60;99.97
63552;BME280;49698;48.072;7.800;2023-02-04T08:56:08;101135.25;;;6.61;100.00
63552;BME280;49698;48.072;7.800;2023-02-04T08:58:36;101147.38;;;6.64;99.97
63552;BME280;49698;48.072;7.800;2023-02-04T09:01:05;101136.06;;;6.61;100.00
63552;BME280;49698;48.072;7.800;2023-02-04T09:03:33;101141.81;;;6.65;99.86
63552;BME280;49698;48.072;7.800;2023-02-04T09:06:01;101139.53;;;6.69;100.00
63552;BME280;49698;48.072;7.800;2023-02-04T09:08:29;101150.19;;;6.75;99.82
63552;BME280;49698;48.072;7.800;2023-02-04T09:10:58;101148.50;;;6.81;99.64
63552;BME280;49698;48.072;7.800;2023-02-04T09:13:26;101146.84;;;6.86;99.48
63552;BME280;49698;48.072;7.800;2023-02-04T09:15:55;101155.84;;;6.92;99.43
63552;BME280;49698;48.072;7.800;2023-02-04T09:18:23;101155.41;;;6.95;99.61
63552;BME280;49698;48.072;7.800;2023-02-04T09:20:52;101149.22;;;7.01;99.38
63552;BME280;49698;48.072;7.800;2023-02-04T09:23:20;101147.13;;;7.03;99.13
63552;BME280;49698;48.072;7.800;2023-02-04T09:25:50;101139.88;;;7.10;99.18
63552;BME280;49698;48.072;7.800;2023-02-04T09:28:25;101146.97;;;7.23;98.70
63552;BME280;49698;48.072;7.800;2023-02-04T09:30:53;101155.19;;;7.28;98.60
63552;BME280;49698;48.072;7.800;2023-02-04T09:33:22;101159.25;;;7.31;98.27
63552;BME280;49698;48.072;7.800;2023-02-04T09:35:51;101162.56;;;7.33;97.91
63552;BME280;49698;48.072;7.800;2023-02-04T09:38:19;101162.31;;;7.34;98.20
63552;BME280;49698;48.072;7.800;2023-02-04T09:40:52;101162.94;;;7.37;97.95
63552;BME280;49698;48.072;7.800;2023-02-04T09:43:23;101167.00;;;7.39;98.15
63552;BME280;49698;48.072;7.800;2023-02-04T09:45:53;101164.53;;;7.44;97.71
63552;BME280;49698;48.072;7.800;2023-02-04T09:48:22;101164.69;;;7.49;97.55
63552;BME280;49698;48.072;7.800;2023-02-04T09:50:52;101166.91;;;7.52;97.50
63552;BME280;49698;48.072;7.800;2023-02-04T09:53:26;101167.31;;;7.56;97.34
63552;BME280;49698;48.072;7.800;2023-02-04T09:55:54;101169.31;;;7.60;97.10
63552;BME280;49698;48.072;7.800;2023-02-04T09:58:25;101172.75;;;7.68;97.01
63552;BME280;49698;48.072;7.800;2023-02-04T10:00:59;101180.72;;;7.74;96.49
63552;BME280;49698;48.072;7.800;2023-02-04T10:03:28;101177.41;;;7.79;96.43
63552;BME280;49698;48.072;7.800;2023-02-04T10:05:56;101184.38;;;7.80;96.13
63552;BME280;49698;48.072;7.800;2023-02-04T10:08:27;101186.44;;;7.78;96.51
63552;BME280;49698;48.072;7.800;2023-02-04T10:10:56;101191.78;;;7.78;96.40
63552;BME280;49698;48.072;7.800;2023-02-04T10:13:30;101194.28;;;7.79;96.48
63552;BME280;49698;48.072;7.800;2023-02-04T10:15:58;101192.25;;;7.75;96.28
63552;BME280;49698;48.072;7.800;2023-02-04T10:18:29;101191.06;;;7.71;96.53
63552;BME280;49698;48.072;7.800;2023-02-04T10:21:07;101190.00;;;7.72;96.55
63552;BME280;49698;48.072;7.800;2023-02-04T10:23:38;101193.28;;;7.74;96.16
63552;BME280;49698;48.072;7.800;2023-02-04T10:26:09;101192.69;;;7.72;96.53
63552;BME280;49698;48.072;7.800;2023-02-04T10:28:39;101194.16;;;7.68;96.39
63552;BME280;49698;48.072;7.800;2023-02-04T10:31:29;101199.69;;;7.73;96.38
63552;BME280;49698;48.072;7.800;2023-02-04T10:34:03;101194.03;;;7.81;95.96
63552;BME280;49698;48.072;7.800;2023-02-04T10:36:31;101197.63;;;7.93;95.59
63552;BME280;49698;48.072;7.800;2023-02-04T10:39:00;101195.69;;;8.00;95.25
63552;BME280;49698;48.072;7.800;2023-02-04T10:41:28;101186.34;;;8.09;94.82
63552;BME280;49698;48.072;7.800;2023-02-04T10:44:05;101183.75;;;8.21;94.37
63552;BME280;49698;48.072;7.800;2023-02-04T10:46:33;101184.94;;;8.25;93.74
63552;BME280;49698;48.072;7.800;2023-02-04T10:49:03;101189.19;;;8.33;93.27
63552;BME280;49698;48.072;7.800;2023-02-04T10:51:32;101190.31;;;8.44;93.08
63552;BME280;49698;48.072;7.800;2023-02-04T10:54:00;101190.97;;;8.57;92.54
63552;BME280;49698;48.072;7.800;2023-02-04T10:56:46;101176.19;;;8.67;91.67
63552;BME280;49698;48.072;7.800;2023-02-04T10:59:21;101172.63;;;8.73;91.42
63552;BME280;49698;48.072;7.800;2023-02-04T11:01:54;101171.72;;;8.79;91.09
63552;BME280;49698;48.072;7.800;2023-02-04T11:04:22;101172.31;;;8.81;90.72
63552;BME280;49698;48.072;7.800;2023-02-04T11:06:50;101177.34;;;8.89;90.58
63552;BME280;49698;48.072;7.800;2023-02-04T11:09:20;101179.69;;;8.97;89.84
63552;BME280;49698;48.072;7.800;2023-02-04T11:11:49;101182.06;;;9.05;89.37
63552;BME280;49698;48.072;7.800;2023-02-04T11:14:24;101175.78;;;9.12;89.38
63552;BME280;49698;48.072;7.800;2023-02-04T11:16:55;101175.91;;;9.17;88.83
63552;BME280;49698;48.072;7.800;2023-02-04T11:19:34;101181.41;;;9.22;88.59
63552;BME280;49698;48.072;7.800;2023-02-04T11:22:18;101178.84;;;9.27;88.39
63552;BME280;49698;48.072;7.800;2023-02-04T11:24:47;101181.91;;;9.42;87.58
63552;BME280;49698;48.072;7.800;2023-02-04T11:27:22;101182.19;;;9.52;86.99
63552;BME280;49698;48.072;7.800;2023-02-04T11:30:03;101181.47;;;9.57;86.48
63552;BME280;49698;48.072;7.800;2023-02-04T11:32:33;101176.56;;;9.66;85.39
63552;BME280;49698;48.072;7.800;2023-02-04T11:35:21;101177.28;;;9.73;84.55
63552;BME280;49698;48.072;7.800;2023-02-04T11:37:49;101182.28;;;9.81;84.51
63552;BME280;49698;48.072;7.800;2023-02-04T11:40:24;101190.25;;;9.88;83.55
63552;BME280;49698;48.072;7.800;2023-02-04T11:42:57;101180.88;;;9.90;82.88
63552;BME280;49698;48.072;7.800;2023-02-04T11:45:29;101182.63;;;9.96;82.79
63552;BME280;49698;48.072;7.800;2023-02-04T11:48:00;101187.28;;;10.01;82.49
63552;BME280;49698;48.072;7.800;2023-02-04T11:50:31;101187.66;;;10.04;81.91
63552;BME280;49698;48.072;7.800;2023-02-04T11:53:00;101183.56;;;10.02;81.89
63552;BME280;49698;48.072;7.800;2023-02-04T11:55:29;101179.59;;;10.04;81.40
63552;BME280;49698;48.072;7.800;2023-02-04T11:57:58;101180.16;;;10.07;80.95
63552;BME280;49698;48.072;7.800;2023-02-04T12:00:30;101175.13;;;10.10;80.72
63552;BME280;49698;48.072;7.800;2023-02-04T12:03:00;101181.56;;;10.09;80.28
63552;BME280;49698;48.072;7.800;2023-02-04T12:05:38;101173.06;;;10.00;80.23
63552;BME280;49698;48.072;7.800;2023-02-04T12:08:11;101175.03;;;9.93;80.23
63552;BME280;49698;48.072;7.800;2023-02-04T12:10:47;101178.34;;;9.84;79.93
63552;BME280;49698;48.072;7.800;2023-02-04T12:13:22;101178.78;;;9.80;79.81
63552;BME280;49698;48.072;7.800;2023-02-04T12:15:58;101181.22;;;9.82;80.04
63552;BME280;49698;48.072;7.800;2023-02-04T12:18:26;101187.31;;;9.89;80.04
63552;BME280;49698;48.072;7.800;2023-02-04T12:20:54;101184.72;;;9.94;79.96
63552;BME280;49698;48.072;7.800;2023-02-04T12:23:23;101191.97;;;9.94;79.35
63552;BME280;49698;48.072;7.800;2023-02-04T12:25:52;101185.53;;;9.95;79.25
63552;BME280;49698;48.072;7.800;2023-02-04T12:28:20;101191.75;;;9.95;79.21
63552;BME280;49698;48.072;7.800;2023-02-04T12:30:48;101186.84;;;9.92;78.92
63552;BME280;49698;48.072;7.800;2023-02-04T12:33:18;101183.09;;;9.93;78.52
63552;BME280;49698;48.072;7.800;2023-02-04T12:35:46;101186.38;;;9.95;78.06
63552;BME280;49698;48.072;7.800;2023-02-04T12:38:14;101180.66;;;9.92;77.74
63552;BME280;49698;48.072;7.800;2023-02-04T12:40:42;101188.94;;;9.90;77.75
63552;BME280;49698;48.072;7.800;2023-02-04T12:43:10;101185.53;;;9.95;77.95
63552;BME280;49698;48.072;7.800;2023-02-04T12:45:38;101184.84;;;9.99;77.76
63552;BME280;49698;48.072;7.800;2023-02-04T12:48:11;101188.47;;;9.93;77.25
63552;BME280;49698;48.072;7.800;2023-02-04T12:50:41;101185.22;;;9.91;77.45
63552;BME280;49698;48.072;7.800;2023-02-04T12:53:08;101182.53;;;9.91;77.38
63552;BME280;49698;48.072;7.800;2023-02-04T12:55:36;101189.41;;;9.87;77.08
63552;BME280;49698;48.072;7.800;2023-02-04T12:58:04;101183.22;;;9.87;77.11
63552;BME280;49698;48.072;7.800;2023-02-04T13:00:32;101178.09;;;9.85;76.99
63552;BME280;49698;48.072;7.800;2023-02-04T13:03:00;101176.56;;;9.89;76.61
63552;BME280;49698;48.072;7.800;2023-02-04T13:05:28;101172.47;;;9.87;76.80
63552;BME280;49698;48.072;7.800;2023-02-04T13:07:58;101179.34;;;9.83;76.58